Time;durP1;ratioP1;P1;durP2;ratioP2;P2;SDS_P1;SDS_P2;PMS_P1;PMS_P2;Temp;Humidity;BMP_temperature;BMP_pressure;BME280_temperature;BME280_humidity;BME280_pressure;Samples;Min_cycle;Max_cycle;Signal;HPM_P1;HPM_P2
2021/11/05 00:00:33;;;;;;;14.82;7.95;;;;;;;;;;5110515;28;20028;-69
2021/11/05 00:02:59;;;;;;;13.38;8.27;;;;;;;;;;5109498;28;20024;-69
2021/11/05 00:05:26;;;;;;;14.30;7.95;;;;;;;;;;5110797;28;20109;-70
2021/11/05 00:07:53;;;;;;;17.25;8.50;;;;;;;;;;5109058;28;20024;-69
2021/11/05 00:11:24;;;;;;;16.55;8.63;;;;;;;;;;5111430;27;20790;-71
2021/11/05 00:13:51;;;;;;;16.38;8.02;;;;;;;;;;5110536;28;20383;-72
2021/11/05 00:20:52;;;;;;;14.38;8.40;;;;;;;;;;5111378;27;20454;-71
2021/11/05 00:23:18;;;;;;;18.65;8.85;;;;;;;;;;5111414;28;20104;-70
2021/11/05 00:25:45;;;;;;;12.70;8.35;;;;;;;;;;5111119;28;20069;-70
2021/11/05 00:28:11;;;;;;;17.42;7.72;;;;;;;;;;5110775;28;20235;-71
2021/11/05 00:32:01;;;;;;;12.00;7.22;;;;;;;;;;5110847;27;20967;-70
2021/11/05 00:40:51;;;;;;;13.63;7.18;;;;;;;;;;5111118;27;20458;-68
2021/11/05 00:43:25;;;;;;;15.95;8.73;;;;;;;;;;5110760;27;20858;-68
2021/11/05 00:46:02;;;;;;;13.13;8.57;;;;;;;;;;5111151;27;20785;-68
2021/11/05 00:49:30;;;;;;;15.32;9.10;;;;;;;;;;5110719;27;20922;-68
2021/11/05 00:55:05;;;;;;;15.18;8.63;;;;;;;;;;5111458;27;20462;-68
2021/11/05 00:57:31;;;;;;;15.82;9.07;;;;;;;;;;5110605;28;20070;-68
2021/11/05 01:01:50;;;;;;;17.02;8.82;;;;;;;;;;5111102;27;20528;-68
2021/11/05 01:05:33;;;;;;;15.38;8.95;;;;;;;;;;5131519;27;20313;-69
2021/11/05 01:09:50;;;;;;;14.25;8.32;;;;;;;;;;5110861;27;20117;-69
2021/11/05 01:13:36;;;;;;;19.75;10.43;;;;;;;;;;5131940;27;20471;-68
2021/11/05 01:16:02;;;;;;;15.65;9.05;;;;;;;;;;5111091;28;20031;-68
2021/11/05 01:19:28;;;;;;;14.10;8.48;;;;;;;;;;5091752;27;20494;-69
2021/11/05 01:23:22;;;;;;;13.75;7.78;;;;;;;;;;5110819;27;20800;-68
2021/11/05 01:25:49;;;;;;;13.07;8.90;;;;;;;;;;5111045;28;20525;-68
2021/11/05 01:28:30;;;;;;;17.40;9.13;;;;;;;;;;5111179;27;20793;-70
2021/11/05 01:30:56;;;;;;;12.48;8.30;;;;;;;;;;5110886;28;20024;-70
2021/11/05 01:33:22;;;;;;;15.68;8.93;;;;;;;;;;5110953;28;20024;-70
2021/11/05 01:35:49;;;;;;;14.18;8.68;;;;;;;;;;5111173;28;20080;-68
2021/11/05 01:45:41;;;;;;;13.45;8.48;;;;;;;;;;5110699;27;20904;-69
2021/11/05 01:48:08;;;;;;;15.40;9.35;;;;;;;;;;5111086;28;20024;-67
2021/11/05 01:52:18;;;;;;;17.80;9.02;;;;;;;;;;5110901;27;20458;-70
2021/11/05 01:55:45;;;;;;;16.13;9.02;;;;;;;;;;5111324;27;20408;-70
2021/11/05 01:58:11;;;;;;;16.05;8.30;;;;;;;;;;5111184;28;20051;-70
2021/11/05 02:00:39;;;;;;;16.02;9.68;;;;;;;;;;5110764;28;20531;-70
2021/11/05 02:03:05;;;;;;;19.33;10.32;;;;;;;;;;5111224;28;20050;-70
2021/11/05 02:06:12;;;;;;;14.93;9.32;;;;;;;;;;5111233;27;20462;-70
2021/11/05 02:08:40;;;;;;;13.07;8.85;;;;;;;;;;5111006;28;20031;-68
2021/11/05 02:11:06;;;;;;;18.10;9.95;;;;;;;;;;5111144;28;20384;-69
2021/11/05 02:13:34;;;;;;;16.42;9.23;;;;;;;;;;5110575;28;20020;-69
2021/11/05 02:16:00;;;;;;;16.33;9.43;;;;;;;;;;5110842;28;20071;-69
2021/11/05 02:18:27;;;;;;;19.83;9.60;;;;;;;;;;5110732;28;20024;-69
2021/11/05 02:20:56;;;;;;;18.00;9.95;;;;;;;;;;5110334;28;20042;-69
2021/11/05 02:23:24;;;;;;;15.25;8.82;;;;;;;;;;5110863;28;20096;-69
2021/11/05 02:25:50;;;;;;;16.45;9.00;;;;;;;;;;5110491;28;20400;-69
2021/11/05 02:28:16;;;;;;;18.80;10.80;;;;;;;;;;5110157;28;20024;-68
2021/11/05 02:31:04;;;;;;;21.15;10.13;;;;;;;;;;5111236;27;20400;-68
2021/11/05 02:33:50;;;;;;;16.42;9.68;;;;;;;;;;5110898;27;20454;-69
2021/11/05 02:36:16;;;;;;;22.13;9.40;;;;;;;;;;5110864;28;20036;-68
2021/11/05 02:40:46;;;;;;;15.55;10.13;;;;;;;;;;5110969;27;20388;-68
2021/11/05 02:43:52;;;;;;;18.40;11.13;;;;;;;;;;5111224;27;20396;-69
2021/11/05 02:46:19;;;;;;;18.20;10.73;;;;;;;;;;5110977;28;20135;-69
2021/11/05 02:48:45;;;;;;;19.52;9.38;;;;;;;;;;5110488;28;20016;-69
2021/11/05 02:56:39;;;;;;;16.38;9.68;;;;;;;;;;5110654;27;20850;-68
2021/11/05 03:03:54;;;;;;;15.57;9.48;;;;;;;;;;5110588;27;20872;-68
2021/11/05 03:06:20;;;;;;;17.02;9.95;;;;;;;;;;5110861;28;20032;-68
2021/11/05 03:10:52;;;;;;;16.73;9.60;;;;;;;;;;5110639;27;20392;-68
2021/11/05 03:15:21;;;;;;;15.10;9.40;;;;;;;;;;5111322;27;20454;-70
2021/11/05 03:19:02;;;;;;;15.27;9.07;;;;;;;;;;5111055;27;20466;-68
2021/11/05 03:21:28;;;;;;;21.73;10.98;;;;;;;;;;5110905;28;20041;-68
2021/11/05 03:23:54;;;;;;;19.20;10.02;;;;;;;;;;5110482;28;20034;-68
2021/11/05 03:26:21;;;;;;;19.75;9.68;;;;;;;;;;5111157;28;20028;-68
2021/11/05 03:28:47;;;;;;;15.77;9.98;;;;;;;;;;5110795;28;20058;-68
2021/11/05 03:31:13;;;;;;;15.32;9.88;;;;;;;;;;5110351;28;20392;-68
2021/11/05 03:35:22;;;;;;;15.95;9.60;;;;;;;;;;5111063;27;20393;-68
2021/11/05 03:37:48;;;;;;;17.70;9.07;;;;;;;;;;5110496;28;20034;-68
2021/11/05 03:40:15;;;;;;;20.15;9.77;;;;;;;;;;5110801;28;20099;-68
2021/11/05 03:42:42;;;;;;;16.13;9.40;;;;;;;;;;5109797;28;20379;-68
2021/11/05 03:45:10;;;;;;;22.33;9.32;;;;;;;;;;5110410;28;20020;-70
2021/11/05 03:47:36;;;;;;;20.25;10.50;;;;;;;;;;5109420;28;20140;-69
2021/11/05 03:50:03;;;;;;;18.30;9.52;;;;;;;;;;5109468;28;20024;-71
2021/11/05 03:52:29;;;;;;;18.17;10.40;;;;;;;;;;5110242;28;20027;-70
2021/11/05 03:57:08;;;;;;;19.42;11.15;;;;;;;;;;5111406;27;20396;-70
2021/11/05 03:59:35;;;;;;;17.55;11.30;;;;;;;;;;5110720;28;20111;-71
2021/11/05 04:02:01;;;;;;;17.92;9.35;;;;;;;;;;5111130;28;20020;-70
2021/11/05 04:04:27;;;;;;;20.73;10.10;;;;;;;;;;5111058;28;20422;-68
2021/11/05 04:06:53;;;;;;;16.67;9.10;;;;;;;;;;5110548;28;20056;-70
2021/11/05 04:09:19;;;;;;;16.88;9.23;;;;;;;;;;5110827;28;20070;-68
2021/11/05 04:11:46;;;;;;;17.30;8.98;;;;;;;;;;5110642;28;20020;-68
2021/11/05 04:14:56;;;;;;;17.75;11.18;;;;;;;;;;5111200;27;20473;-68
2021/11/05 04:17:22;;;;;;;20.33;9.18;;;;;;;;;;5111025;28;20036;-69
2021/11/05 04:22:07;;;;;;;15.38;9.27;;;;;;;;;;5111054;27;20397;-69
2021/11/05 04:27:21;;;;;;;16.73;9.07;;;;;;;;;;5110770;27;20868;-68
2021/11/05 04:30:32;;;;;;;15.35;8.75;;;;;;;;;;5111677;27;20481;-71
2021/11/05 04:35:20;;;;;;;14.57;9.48;;;;;;;;;;5110658;27;20461;-67
2021/11/05 04:37:47;;;;;;;17.55;10.20;;;;;;;;;;5109709;28;20031;-68
2021/11/05 04:41:38;;;;;;;15.60;10.00;;;;;;;;;;5110657;27;20396;-68
2021/11/05 04:44:04;;;;;;;21.42;10.77;;;;;;;;;;5110863;28;20026;-68
2021/11/05 04:46:54;;;;;;;20.55;10.35;;;;;;;;;;5111284;27;20444;-68
2021/11/05 04:49:22;;;;;;;17.67;10.50;;;;;;;;;;5110623;28;20024;-70
2021/11/05 04:55:35;;;;;;;15.93;9.40;;;;;;;;;;5110715;27;20462;-70
2021/11/05 04:58:01;;;;;;;18.30;9.98;;;;;;;;;;5111046;28;20463;-70
2021/11/05 05:00:28;;;;;;;17.25;11.18;;;;;;;;;;5110907;28;20039;-67
2021/11/05 05:06:07;;;;;;;18.17;10.60;;;;;;;;;;5092172;27;20477;-70
2021/11/05 05:09:45;;;;;;;16.55;9.77;;;;;;;;;;5110588;27;20389;-69
2021/11/05 05:12:12;;;;;;;18.15;9.95;;;;;;;;;;5111195;28;20028;-69
2021/11/05 05:14:39;;;;;;;15.73;8.57;;;;;;;;;;5110967;28;20031;-69
2021/11/05 05:17:05;;;;;;;17.55;9.50;;;;;;;;;;5110987;28;20043;-69
2021/11/05 05:21:09;;;;;;;18.80;9.45;;;;;;;;;;5111855;27;20783;-68
2021/11/05 05:23:35;;;;;;;18.35;9.57;;;;;;;;;;5110806;28;20028;-70
2021/11/05 05:26:01;;;;;;;16.90;9.98;;;;;;;;;;5111211;28;20461;-69
2021/11/05 05:28:30;;;;;;;22.00;11.10;;;;;;;;;;5110900;28;20020;-70
2021/11/05 05:30:57;;;;;;;13.07;9.60;;;;;;;;;;5110311;28;20044;-70
2021/11/05 05:33:23;;;;;;;15.18;10.20;;;;;;;;;;5110882;28;20047;-70
2021/11/05 05:35:49;;;;;;;15.85;10.55;;;;;;;;;;5110794;28;20024;-69
2021/11/05 05:39:26;;;;;;;21.85;10.63;;;;;;;;;;5111827;27;20462;-70
2021/11/05 05:44:54;;;;;;;18.90;11.10;;;;;;;;;;5110822;27;20446;-70
2021/11/05 05:47:21;;;;;;;19.30;10.82;;;;;;;;;;5111225;28;20019;-68
2021/11/05 05:51:51;;;;;;;20.40;11.35;;;;;;;;;;5110739;27;20442;-71
2021/11/05 05:54:17;;;;;;;18.23;11.30;;;;;;;;;;5111354;28;20085;-70
2021/11/05 05:56:43;;;;;;;18.38;12.35;;;;;;;;;;5110998;28;20023;-70
2021/11/05 05:59:10;;;;;;;22.38;13.98;;;;;;;;;;5110795;28;20493;-70
2021/11/05 06:01:36;;;;;;;17.65;11.18;;;;;;;;;;5111263;28;20034;-70
2021/11/05 06:04:02;;;;;;;21.40;10.48;;;;;;;;;;5111209;28;20012;-69
2021/11/05 06:06:29;;;;;;;26.25;12.80;;;;;;;;;;5110274;28;20023;-69
2021/11/05 06:08:55;;;;;;;16.85;10.85;;;;;;;;;;5110543;28;20024;-68
2021/11/05 06:11:22;;;;;;;19.83;11.63;;;;;;;;;;5110015;28;20115;-69
2021/11/05 06:15:42;;;;;;;20.02;11.40;;;;;;;;;;5152483;27;20405;-69
2021/11/05 06:18:09;;;;;;;18.85;11.63;;;;;;;;;;5151549;27;20026;-69
2021/11/05 06:20:35;;;;;;;18.25;10.60;;;;;;;;;;5150948;27;20080;-69
2021/11/05 06:23:01;;;;;;;18.48;9.98;;;;;;;;;;5151223;27;20088;-69
2021/11/05 06:28:03;;;;;;;17.98;9.75;;;;;;;;;;5111154;27;20967;-69
2021/11/05 06:30:30;;;;;;;22.60;10.32;;;;;;;;;;5111254;28;20024;-72
2021/11/05 06:34:02;;;;;;;18.95;10.32;;;;;;;;;;5117564;27;20325;-70
2021/11/05 06:36:29;;;;;;;24.38;10.50;;;;;;;;;;5106681;28;20025;-69
2021/11/05 06:40:12;;;;;;;16.92;8.95;;;;;;;;;;5109953;27;20385;-67
2021/11/05 06:42:49;;;;;;;13.30;7.43;;;;;;;;;;5110832;27;20389;-69
2021/11/05 06:46:58;;;;;;;13.93;8.18;;;;;;;;;;5110600;27;20427;-71
2021/11/05 06:49:24;;;;;;;13.82;7.88;;;;;;;;;;5111412;28;20032;-71
2021/11/05 06:51:54;;;;;;;15.23;7.57;;;;;;;;;;5116708;28;20023;-71
2021/11/05 06:55:07;;;;;;;15.63;8.30;;;;;;;;;;5110374;27;20321;-69
2021/11/05 06:57:33;;;;;;;14.65;8.82;;;;;;;;;;5110890;28;20034;-69
2021/11/05 07:00:00;;;;;;;16.02;9.73;;;;;;;;;;5110975;28;20030;-69
2021/11/05 07:02:26;;;;;;;15.77;8.93;;;;;;;;;;5110190;28;20068;-70
2021/11/05 07:06:04;;;;;;;16.05;6.70;;;;;;;;;;5110055;27;20397;-70
2021/11/05 07:10:47;;;;;;;17.42;8.45;;;;;;;;;;5110324;27;20389;-70
2021/11/05 07:13:20;;;;;;;15.27;7.60;;;;;;;;;;5111089;28;20027;-70
2021/11/05 07:15:47;;;;;;;16.35;8.40;;;;;;;;;;5110425;28;20217;-71
2021/11/05 07:18:13;;;;;;;15.80;8.07;;;;;;;;;;5110604;28;20016;-70
2021/11/05 07:22:36;;;;;;;14.13;7.03;;;;;;;;;;5107508;27;20808;-68
2021/11/05 07:25:03;;;;;;;13.35;7.22;;;;;;;;;;5094321;28;20543;-68
2021/11/05 07:27:29;;;;;;;13.82;7.97;;;;;;;;;;5089052;28;20024;-70
2021/11/05 07:31:48;;;;;;;14.05;6.53;;;;;;;;;;5110800;27;20454;-71
2021/11/05 07:35:22;;;;;;;13.60;6.10;;;;;;;;;;5110586;27;20851;-72
2021/11/05 07:37:49;;;;;;;14.80;6.57;;;;;;;;;;5110046;28;20111;-71
2021/11/05 07:40:15;;;;;;;10.55;6.43;;;;;;;;;;5110602;28;20020;-71
2021/11/05 07:42:42;;;;;;;14.75;6.32;;;;;;;;;;5109514;28;20027;-69
2021/11/05 07:45:09;;;;;;;12.63;6.93;;;;;;;;;;5109151;28;20016;-70
2021/11/05 07:49:22;;;;;;;14.13;7.43;;;;;;;;;;5166759;27;20121;-71
2021/11/05 07:52:42;;;;;;;12.40;6.38;;;;;;;;;;5110087;27;20456;-71
2021/11/05 07:55:11;;;;;;;14.48;8.48;;;;;;;;;;5109757;28;20050;-70
2021/11/05 07:57:41;;;;;;;13.07;6.20;;;;;;;;;;5108699;28;20024;-70
2021/11/05 08:01:12;;;;;;;12.63;7.32;;;;;;;;;;5162530;27;20123;-69
2021/11/05 08:03:38;;;;;;;14.10;6.65;;;;;;;;;;5133246;27;20491;-71
2021/11/05 08:06:04;;;;;;;13.23;6.85;;;;;;;;;;5149573;27;20023;-70
2021/11/05 08:15:04;;;;;;;11.85;6.85;;;;;;;;;;5128206;27;20425;-71
2021/11/05 08:20:07;;;;;;;11.50;5.63;;;;;;;;;;5129835;27;20868;-70
2021/11/05 08:22:33;;;;;;;16.95;6.70;;;;;;;;;;5130319;28;20092;-70
2021/11/05 08:24:59;;;;;;;14.57;6.43;;;;;;;;;;5129403;28;20027;-70
2021/11/05 08:27:27;;;;;;;10.88;5.05;;;;;;;;;;5128736;28;20023;-71
2021/11/05 08:29:53;;;;;;;12.18;6.68;;;;;;;;;;5129129;28;20019;-71
2021/11/05 08:32:19;;;;;;;13.48;6.18;;;;;;;;;;5128957;28;20023;-70
2021/11/05 08:34:45;;;;;;;14.15;6.03;;;;;;;;;;5128729;28;20112;-71
2021/11/05 08:37:47;;;;;;;16.80;9.38;;;;;;;;;;5109835;27;20411;-71
2021/11/05 08:43:35;;;;;;;9.70;4.75;;;;;;;;;;5110140;27;20765;-71
2021/11/05 08:46:03;;;;;;;11.48;5.97;;;;;;;;;;5108959;28;20464;-71
2021/11/05 08:48:30;;;;;;;13.90;7.60;;;;;;;;;;5108456;28;20069;-70
2021/11/05 08:54:16;;;;;;;14.73;5.03;;;;;;;;;;5109441;27;20461;-70
2021/11/05 08:56:43;;;;;;;9.98;4.97;;;;;;;;;;5110915;28;20418;-72
2021/11/05 08:59:24;;;;;;;13.05;6.85;;;;;;;;;;5111057;27;20435;-71
2021/11/05 09:03:20;;;;;;;15.38;6.22;;;;;;;;;;5068847;27;20982;-72
2021/11/05 09:05:49;;;;;;;11.38;6.47;;;;;;;;;;5067215;28;20092;-71
2021/11/05 09:09:43;;;;;;;15.15;6.68;;;;;;;;;;5106221;27;20446;-72
2021/11/05 09:12:09;;;;;;;12.15;6.10;;;;;;;;;;5107932;28;20028;-70
2021/11/05 09:16:07;;;;;;;10.88;6.18;;;;;;;;;;5105663;27;20446;-71
2021/11/05 09:18:33;;;;;;;15.85;6.93;;;;;;;;;;5108996;28;20024;-70
2021/11/05 09:21:00;;;;;;;12.10;7.35;;;;;;;;;;5108343;28;20043;-71
2021/11/05 09:23:27;;;;;;;13.32;5.93;;;;;;;;;;5107919;28;20453;-72
2021/11/05 09:25:54;;;;;;;12.75;5.43;;;;;;;;;;5106601;28;20046;-70
2021/11/05 09:31:41;;;;;;;13.18;6.93;;;;;;;;;;5110509;27;20396;-72
2021/11/05 09:37:35;;;;;;;12.85;5.78;;;;;;;;;;5150870;27;20374;-69
2021/11/05 09:40:02;;;;;;;11.85;6.07;;;;;;;;;;5131063;28;20471;-71
2021/11/05 09:42:29;;;;;;;11.15;5.60;;;;;;;;;;5128028;28;20065;-72
2021/11/05 09:44:55;;;;;;;11.80;5.68;;;;;;;;;;5131262;28;20027;-71
2021/11/05 09:47:34;;;;;;;13.35;6.10;;;;;;;;;;5111267;27;20392;-72
2021/11/05 09:50:07;;;;;;;14.98;6.47;;;;;;;;;;5108417;28;20031;-72
2021/11/05 09:52:38;;;;;;;15.57;7.40;;;;;;;;;;5104591;28;20020;-71
2021/11/05 09:56:47;;;;;;;12.55;5.13;;;;;;;;;;5088973;27;20436;-72
2021/11/05 09:59:14;;;;;;;13.18;5.85;;;;;;;;;;5082644;28;20484;-70
2021/11/05 10:01:41;;;;;;;10.95;5.53;;;;;;;;;;5086292;28;20059;-73
2021/11/05 10:05:00;;;;;;;11.02;4.97;;;;;;;;;;5114192;27;20235;-72
2021/11/05 10:09:44;;;;;;;10.73;5.35;;;;;;;;;;5106506;27;20423;-73
2021/11/05 10:12:12;;;;;;;10.95;5.43;;;;;;;;;;5109109;28;20028;-73
2021/11/05 10:14:39;;;;;;;8.27;5.05;;;;;;;;;;5110749;28;20364;-73
2021/11/05 10:17:07;;;;;;;16.13;7.03;;;;;;;;;;5110339;28;20043;-70
2021/11/05 10:22:47;;;;;;;8.75;4.53;;;;;;;;;;5107513;27;20405;-73
2021/11/05 10:25:34;;;;;;;10.77;4.40;;;;;;;;;;5109983;28;20172;-72
2021/11/05 10:28:18;;;;;;;8.70;4.72;;;;;;;;;;5110877;28;20031;-70
2021/11/05 10:30:44;;;;;;;8.73;4.35;;;;;;;;;;5110699;28;20099;-72
2021/11/05 10:33:12;;;;;;;9.95;4.35;;;;;;;;;;5109839;28;20088;-70
2021/11/05 10:36:37;;;;;;;8.48;3.88;;;;;;;;;;5110455;27;20454;-73
2021/11/05 10:39:56;;;;;;;10.70;4.75;;;;;;;;;;5109599;27;20425;-71
2021/11/05 10:42:33;;;;;;;9.18;4.45;;;;;;;;;;5098407;28;20036;-72
2021/11/05 10:45:25;;;;;;;9.57;4.30;;;;;;;;;;5075287;28;20075;-69
2021/11/05 10:47:55;;;;;;;17.05;4.53;;;;;;;;;;5086453;28;20090;-69
2021/11/05 10:50:23;;;;;;;5.72;3.10;;;;;;;;;;5088101;28;20449;-69
2021/11/05 10:53:08;;;;;;;8.63;3.90;;;;;;;;;;5089991;28;20064;-69
2021/11/05 10:56:20;;;;;;;8.65;4.35;;;;;;;;;;5110212;27;20450;-69
2021/11/05 11:01:12;;;;;;;9.25;4.38;;;;;;;;;;5110457;27;20438;-69
2021/11/05 11:03:55;;;;;;;10.60;4.30;;;;;;;;;;5109518;28;20032;-69
2021/11/05 11:07:38;;;;;;;10.38;4.82;;;;;;;;;;5110680;27;20108;-71
2021/11/05 11:10:05;;;;;;;10.02;5.47;;;;;;;;;;5110529;28;20035;-70
2021/11/05 11:12:32;;;;;;;11.13;5.65;;;;;;;;;;5110131;28;20043;-68
2021/11/05 11:18:32;;;;;;;13.60;5.18;;;;;;;;;;5109901;27;20458;-67
2021/11/05 11:20:58;;;;;;;11.50;4.43;;;;;;;;;;5107555;28;20490;-67
2021/11/05 11:23:24;;;;;;;14.00;6.82;;;;;;;;;;5109587;28;20397;-68
2021/11/05 11:25:51;;;;;;;13.18;6.93;;;;;;;;;;5093171;28;20030;-67
2021/11/05 11:28:17;;;;;;;10.57;5.65;;;;;;;;;;5088599;28;20417;-68
2021/11/05 11:30:43;;;;;;;13.73;6.80;;;;;;;;;;5088019;28;20063;-68
2021/11/05 11:33:10;;;;;;;15.73;6.88;;;;;;;;;;5088824;28;20024;-70
2021/11/05 11:35:38;;;;;;;16.38;7.65;;;;;;;;;;5087084;28;20024;-69
2021/11/05 11:38:04;;;;;;;12.52;6.05;;;;;;;;;;5086119;28;20032;-70
2021/11/05 11:42:04;;;;;;;10.50;5.00;;;;;;;;;;5109183;27;20397;-69
2021/11/05 11:44:32;;;;;;;10.38;5.22;;;;;;;;;;5109272;28;20053;-70
2021/11/05 11:47:05;;;;;;;9.75;5.07;;;;;;;;;;5109443;28;20024;-70
2021/11/05 11:49:42;;;;;;;9.30;4.53;;;;;;;;;;5109807;28;20065;-69
2021/11/05 11:52:21;;;;;;;11.85;4.88;;;;;;;;;;5110876;28;20336;-69
2021/11/05 11:54:48;;;;;;;10.35;5.07;;;;;;;;;;5110564;28;20114;-69
2021/11/05 11:57:18;;;;;;;9.15;4.20;;;;;;;;;;5110224;28;20406;-69
2021/11/05 11:59:46;;;;;;;14.57;5.03;;;;;;;;;;5110761;28;20028;-71
2021/11/05 12:02:31;;;;;;;10.95;4.50;;;;;;;;;;5110637;28;20054;-70
2021/11/05 12:04:58;;;;;;;9.68;4.53;;;;;;;;;;5110239;28;20026;-70
2021/11/05 12:07:24;;;;;;;7.82;5.22;;;;;;;;;;5110549;28;20034;-70
2021/11/05 12:09:50;;;;;;;11.75;4.80;;;;;;;;;;5110565;28;20032;-70
2021/11/05 12:12:22;;;;;;;8.85;4.50;;;;;;;;;;5109919;28;20406;-69
2021/11/05 12:15:01;;;;;;;14.50;4.93;;;;;;;;;;5110354;28;20031;-70
2021/11/05 12:17:45;;;;;;;9.73;5.72;;;;;;;;;;5110327;28;20027;-70
2021/11/05 12:21:17;;;;;;;14.05;6.75;;;;;;;;;;5111349;27;20397;-71
2021/11/05 12:23:43;;;;;;;10.77;6.10;;;;;;;;;;5110827;28;20483;-69
2021/11/05 12:26:58;;;;;;;14.60;6.40;;;;;;;;;;5110648;27;20462;-69
2021/11/05 12:31:25;;;;;;;10.68;5.05;;;;;;;;;;5111258;27;20454;-68
2021/11/05 12:33:51;;;;;;;12.43;4.50;;;;;;;;;;5110851;28;20384;-69
2021/11/05 12:36:18;;;;;;;12.48;4.85;;;;;;;;;;5110691;28;20095;-70
2021/11/05 12:39:07;;;;;;;12.50;5.05;;;;;;;;;;5110372;28;20069;-70
2021/11/05 12:41:53;;;;;;;12.70;6.40;;;;;;;;;;5102767;28;20129;-70
2021/11/05 12:46:06;;;;;;;15.70;7.28;;;;;;;;;;5111194;27;20458;-68
2021/11/05 12:48:43;;;;;;;12.30;5.97;;;;;;;;;;5073830;28;20046;-69
2021/11/05 12:51:28;;;;;;;10.07;5.25;;;;;;;;;;5117922;27;20464;-70
2021/11/05 12:53:56;;;;;;;14.02;6.05;;;;;;;;;;5130890;28;20039;-66
2021/11/05 12:56:22;;;;;;;16.52;6.10;;;;;;;;;;5131373;28;20096;-67
2021/11/05 13:00:46;;;;;;;13.13;5.13;;;;;;;;;;5110514;27;20775;-68
2021/11/05 13:04:20;;;;;;;12.43;6.18;;;;;;;;;;5110991;27;20466;-68
2021/11/05 13:06:53;;;;;;;11.23;4.90;;;;;;;;;;5110676;28;20036;-68
2021/11/05 13:11:05;;;;;;;16.35;6.38;;;;;;;;;;5110474;27;20392;-68
2021/11/05 13:14:15;;;;;;;11.75;5.47;;;;;;;;;;5110524;27;20397;-67
2021/11/05 13:18:53;;;;;;;15.95;5.70;;;;;;;;;;5110932;27;20462;-71
2021/11/05 13:21:21;;;;;;;14.75;7.57;;;;;;;;;;5110442;28;20046;-69
2021/11/05 13:23:47;;;;;;;14.63;7.72;;;;;;;;;;5110707;28;20488;-69
2021/11/05 13:26:13;;;;;;;16.13;8.27;;;;;;;;;;5110943;28;20077;-69
2021/11/05 13:28:39;;;;;;;15.43;6.45;;;;;;;;;;5110584;28;20383;-70
2021/11/05 13:31:06;;;;;;;10.60;4.88;;;;;;;;;;5110429;28;20023;-68
2021/11/05 13:33:36;;;;;;;15.15;6.32;;;;;;;;;;5110464;28;20050;-71
2021/11/05 13:37:59;;;;;;;14.23;6.75;;;;;;;;;;5110342;27;20401;-70
2021/11/05 13:40:25;;;;;;;19.63;9.45;;;;;;;;;;5109078;28;20131;-69
2021/11/05 13:42:51;;;;;;;20.20;9.90;;;;;;;;;;5110158;28;20492;-69
2021/11/05 13:45:17;;;;;;;20.80;9.57;;;;;;;;;;5110499;28;20058;-68
2021/11/05 13:47:45;;;;;;;12.85;7.18;;;;;;;;;;5110108;28;20433;-70
2021/11/05 13:50:14;;;;;;;13.50;6.32;;;;;;;;;;5110450;28;20066;-70
2021/11/05 13:52:53;;;;;;;8.90;4.53;;;;;;;;;;5109632;28;20039;-69
2021/11/05 13:55:26;;;;;;;12.35;6.03;;;;;;;;;;5108399;28;20027;-69
2021/11/05 13:57:53;;;;;;;10.73;5.15;;;;;;;;;;5107982;28;20109;-70
2021/11/05 14:00:19;;;;;;;12.50;5.50;;;;;;;;;;5109161;28;20145;-70
2021/11/05 14:02:47;;;;;;;9.23;5.05;;;;;;;;;;5107811;28;20028;-71
2021/11/05 14:05:14;;;;;;;10.45;5.28;;;;;;;;;;5108815;28;20020;-71
2021/11/05 14:07:59;;;;;;;11.20;4.97;;;;;;;;;;5108104;28;20084;-70
2021/11/05 14:10:25;;;;;;;7.75;3.90;;;;;;;;;;5109189;28;20375;-72
2021/11/05 14:12:58;;;;;;;11.90;4.70;;;;;;;;;;5108178;28;20089;-71
2021/11/05 14:16:10;;;;;;;11.70;5.20;;;;;;;;;;5109895;27;20392;-71
2021/11/05 14:18:37;;;;;;;8.80;4.43;;;;;;;;;;5109824;28;20035;-71
2021/11/05 14:22:08;;;;;;;10.45;4.35;;;;;;;;;;5109946;27;20462;-71
2021/11/05 14:24:46;;;;;;;13.30;5.93;;;;;;;;;;5109811;28;20107;-71
2021/11/05 14:27:29;;;;;;;20.85;5.15;;;;;;;;;;5110542;28;20035;-70
2021/11/05 14:29:57;;;;;;;13.00;5.45;;;;;;;;;;5110887;28;20228;-70
2021/11/05 14:32:36;;;;;;;13.13;5.28;;;;;;;;;;5110470;28;20388;-70
2021/11/05 14:35:05;;;;;;;11.70;5.40;;;;;;;;;;5110700;28;20020;-69
2021/11/05 14:37:37;;;;;;;12.38;5.63;;;;;;;;;;5110564;28;20028;-70
2021/11/05 14:40:05;;;;;;;10.50;4.68;;;;;;;;;;5110415;28;20030;-69
2021/11/05 14:42:32;;;;;;;12.27;4.88;;;;;;;;;;5110820;28;20024;-70
2021/11/05 14:45:06;;;;;;;8.65;3.95;;;;;;;;;;5109380;28;20027;-70
2021/11/05 14:47:42;;;;;;;12.20;5.35;;;;;;;;;;5110153;28;20027;-70
2021/11/05 14:50:09;;;;;;;11.40;5.90;;;;;;;;;;5110489;28;20077;-70
2021/11/05 14:52:46;;;;;;;10.45;5.40;;;;;;;;;;5110176;28;20638;-70
2021/11/05 14:57:28;;;;;;;12.00;5.35;;;;;;;;;;5111108;27;20404;-70
2021/11/05 15:00:29;;;;;;;12.98;6.45;;;;;;;;;;5110928;27;20381;-69
2021/11/05 15:03:43;;;;;;;12.90;5.78;;;;;;;;;;5108785;27;20473;-69
2021/11/05 15:06:11;;;;;;;12.68;5.90;;;;;;;;;;5110520;28;20031;-69
2021/11/05 15:08:38;;;;;;;15.13;7.03;;;;;;;;;;5109859;28;20016;-69
2021/11/05 15:11:07;;;;;;;16.90;8.35;;;;;;;;;;5110160;28;20054;-69
2021/11/05 15:13:34;;;;;;;13.82;7.43;;;;;;;;;;5110210;28;20074;-69
2021/11/05 15:18:17;;;;;;;23.67;13.82;;;;;;;;;;5111427;27;20401;-69
2021/11/05 15:20:44;;;;;;;18.00;10.35;;;;;;;;;;5109179;28;20503;-69
2021/11/05 15:23:23;;;;;;;23.20;13.85;;;;;;;;;;5111714;27;20462;-70
2021/11/05 15:25:49;;;;;;;31.95;14.88;;;;;;;;;;5111028;28;20062;-70
2021/11/05 15:28:45;;;;;;;18.10;10.27;;;;;;;;;;5110633;27;20505;-69
2021/11/05 15:31:12;;;;;;;16.10;8.80;;;;;;;;;;5110839;28;20042;-69
2021/11/05 15:33:38;;;;;;;13.48;8.75;;;;;;;;;;5110719;28;20491;-68
2021/11/05 15:36:05;;;;;;;34.88;12.82;;;;;;;;;;5110353;28;20031;-69
2021/11/05 15:38:32;;;;;;;17.85;10.38;;;;;;;;;;5110963;28;20035;-68
2021/11/05 15:40:59;;;;;;;29.90;17.23;;;;;;;;;;5110949;28;20073;-69
2021/11/05 15:47:12;;;;;;;38.67;18.40;;;;;;;;;;5131375;27;20587;-68
2021/11/05 15:53:49;;;;;;;25.85;15.90;;;;;;;;;;5111610;27;20450;-70
2021/11/05 15:56:47;;;;;;;20.65;12.07;;;;;;;;;;5050247;28;20463;-70
2021/11/05 15:59:41;;;;;;;16.70;10.10;;;;;;;;;;5111236;27;20952;-69
2021/11/05 16:02:08;;;;;;;15.10;8.35;;;;;;;;;;5110719;28;20361;-71
2021/11/05 16:04:34;;;;;;;15.55;9.05;;;;;;;;;;5110426;28;20464;-71
2021/11/05 16:07:48;;;;;;;26.00;12.55;;;;;;;;;;5111298;27;20451;-70
2021/11/05 16:13:23;;;;;;;28.55;14.50;;;;;;;;;;5110913;27;20842;-70
2021/11/05 16:15:50;;;;;;;25.33;14.75;;;;;;;;;;5110953;28;20107;-70
2021/11/05 16:18:50;;;;;;;23.40;16.10;;;;;;;;;;5110708;27;20446;-71
2021/11/05 16:21:16;;;;;;;29.15;18.73;;;;;;;;;;5110824;28;20062;-70
2021/11/05 16:23:44;;;;;;;26.25;15.68;;;;;;;;;;5110612;28;20436;-69
2021/11/05 16:26:27;;;;;;;28.40;17.70;;;;;;;;;;5111096;27;20488;-70
2021/11/05 16:28:54;;;;;;;25.27;15.15;;;;;;;;;;5110845;28;20099;-70
2021/11/05 16:31:21;;;;;;;20.10;11.02;;;;;;;;;;5110542;28;20020;-67
2021/11/05 16:33:48;;;;;;;26.10;15.88;;;;;;;;;;5110796;28;20115;-70
2021/11/05 16:37:45;;;;;;;40.67;25.40;;;;;;;;;;5110647;27;20447;-70
2021/11/05 16:42:07;;;;;;;41.78;26.52;;;;;;;;;;5111307;27;20478;-69
2021/11/05 16:48:28;;;;;;;46.60;32.20;;;;;;;;;;5111230;27;20473;-69
2021/11/05 16:50:54;;;;;;;56.25;35.15;;;;;;;;;;5110836;28;20497;-70
2021/11/05 16:55:16;;;;;;;46.75;26.05;;;;;;;;;;5111366;27;20447;-70
2021/11/05 16:59:18;;;;;;;43.65;26.48;;;;;;;;;;5111107;27;20454;-70
2021/11/05 17:03:45;;;;;;;39.75;24.85;;;;;;;;;;5111275;27;20385;-68
2021/11/05 17:07:11;;;;;;;28.83;17.80;;;;;;;;;;5110687;27;20438;-70
2021/11/05 17:09:37;;;;;;;25.58;15.55;;;;;;;;;;5110856;28;20533;-70
2021/11/05 17:12:03;;;;;;;45.13;28.15;;;;;;;;;;5109476;28;20028;-70
2021/11/05 17:14:30;;;;;;;54.30;37.13;;;;;;;;;;5110462;28;20103;-69
2021/11/05 17:17:38;;;;;;;53.88;35.13;;;;;;;;;;5111825;27;20442;-70
2021/11/05 17:20:05;;;;;;;51.17;35.13;;;;;;;;;;5110499;28;20492;-69
2021/11/05 17:22:59;;;;;;;45.03;30.10;;;;;;;;;;5110839;27;20787;-69
2021/11/05 17:25:25;;;;;;;76.35;47.33;;;;;;;;;;5110927;28;20024;-69
2021/11/05 17:30:01;;;;;;;90.45;58.42;;;;;;;;;;5111544;27;20397;-69
2021/11/05 17:32:28;;;;;;;91.32;59.22;;;;;;;;;;5110999;28;20024;-68
2021/11/05 17:34:55;;;;;;;90.63;59.63;;;;;;;;;;5110327;28;20027;-69
2021/11/05 17:41:34;;;;;;;117.55;70.85;;;;;;;;;;5172425;27;20106;-68
2021/11/05 17:44:00;;;;;;;67.80;47.10;;;;;;;;;;5152103;27;20031;-68
2021/11/05 17:46:26;;;;;;;58.72;42.80;;;;;;;;;;5152021;27;20083;-69
2021/11/05 17:50:32;;;;;;;72.47;49.47;;;;;;;;;;5111262;27;20426;-69
2021/11/05 17:52:58;;;;;;;71.93;45.60;;;;;;;;;;5110889;28;20027;-69
2021/11/05 17:55:25;;;;;;;60.30;39.83;;;;;;;;;;5110582;28;20024;-69
2021/11/05 17:57:52;;;;;;;59.47;36.63;;;;;;;;;;5110748;28;20024;-69
2021/11/05 18:01:22;;;;;;;43.35;29.63;;;;;;;;;;5111203;27;20954;-69
2021/11/05 18:03:48;;;;;;;77.50;49.65;;;;;;;;;;5110592;28;20055;-69
2021/11/05 18:06:14;;;;;;;71.63;46.85;;;;;;;;;;5110934;28;20024;-69
2021/11/05 18:08:40;;;;;;;61.13;39.10;;;;;;;;;;5111168;28;20095;-69